Time,TemperatureF,DewpointF,PressureIn,WindDirection,WindDirectionDegrees,WindSpeedMPH,WindSpeedGustMPH,Humidity,HourlyPrecipIn,Conditions,Clouds,dailyrainin,SoftwareType,DateUTC
2013-07-08 00:01:00,72.2,71.3,29.89,SSW,208,0.0,0.0,97,0.00,,CLR,0.02,VWS V13.01,2013-07-08 04:01:00,
2013-07-08 00:02:00,72.2,71.3,29.89,SSW,208,0.0,0.0,97,0.00,,CLR,0.00,VWS V13.01,2013-07-08 04:02:00,
2013-07-08 00:03:00,72.2,71.3,29.89,SSW,208,0.0,0.0,97,0.00,,CLR,0.00,VWS V13.01,2013-07-08 04:03:00,
2013-07-08 00:08:00,72.2,71.3,29.89,SSW,208,0.0,0.0,97,0.00,,CLR,0.00,VWS V13.01,2013-07-08 04:08:00,
2013-07-08 00:13:00,72.1,71.2,29.89,SSW,208,0.0,0.0,97,0.00,,CLR,0.00,VWS V13.01,2013-07-08 04:13:00,
2013-07-08 00:18:00,72.0,71.1,29.88,SSW,208,0.0,0.0,97,0.00,,CLR,0.00,VWS V13.01,2013-07-08 04:18:00,
2013-07-08 00:23:00,72.0,71.1,29.88,SSW,208,0.0,0.0,97,0.00,,CLR,0.00,VWS V13.01,2013-07-08 04:23:00,
2013-07-08 00:28:00,71.9,71.0,29.88,SSW,208,0.0,0.0,97,0.00,,CLR,0.00,VWS V13.01,2013-07-08 04:28:00,
2013-07-08 00:33:00,71.8,70.9,29.88,SSW,208,0.0,0.0,97,0.00,,CLR,0.00,VWS V13.01,2013-07-08 04:33:00,
2013-07-08 00:38:00,71.7,70.8,29.88,SSW,208,0.0,0.0,97,0.00,,CLR,0.00,VWS V13.01,2013-07-08 04:38:00,
2013-07-08 00:43:00,71.6,70.7,29.88,SSW,208,0.0,0.0,97,0.00,,CLR,0.00,VWS V13.01,2013-07-08 04:43:00,
2013-07-08 00:48:00,71.6,70.7,29.88,SSW,208,0.0,0.0,97,0.00,,CLR,0.00,VWS V13.01,2013-07-08 04:48:00,
2013-07-08 00:53:00,71.6,70.7,29.88,SSW,208,0.0,0.0,97,0.00,,CLR,0.00,VWS V13.01,2013-07-08 04:53:00,
2013-07-08 00:58:00,71.5,70.6,29.88,SSW,208,0.0,0.0,97,0.00,,CLR,0.00,VWS V13.01,2013-07-08 04:58:00,
2013-07-08 01:03:00,71.6,70.7,29.88,SSW,208,0.0,0.0,97,0.00,,CLR,0.00,VWS V13.01,2013-07-08 05:03:00,
2013-07-08 01:08:00,71.5,70.6,29.88,SSW,208,0.0,0.0,97,0.00,,CLR,0.00,VWS V13.01,2013-07-08 05:08:00,
2013-07-08 01:13:00,71.5,70.6,29.88,SSW,208,0.0,0.0,97,0.00,,CLR,0.00,VWS V13.01,2013-07-08 05:13:00,
2013-07-08 01:18:00,71.5,70.6,29.89,SSW,208,0.0,0.0,97,0.00,,CLR,0.00,VWS V13.01,2013-07-08 05:18:00,
2013-07-08 01:23:00,71.5,70.9,29.89,SSW,208,0.0,0.0,98,0.00,,CLR,0.00,VWS V13.01,2013-07-08 05:23:00,
2013-07-08 01:28:00,71.5,70.9,29.89,SSW,208,0.0,0.0,98,0.00,,CLR,0.00,VWS V13.01,2013-07-08 05:28:00,
2013-07-08 01:33:00,71.5,70.9,29.89,SSW,208,0.0,0.0,98,0.00,,CLR,0.00,VWS V13.01,2013-07-08 05:33:00,
2013-07-08 01:38:00,71.5,70.9,29.89,SSW,208,0.0,0.0,98,0.00,,CLR,0.00,VWS V13.01,2013-07-08 05:38:00,
2013-07-08 01:43:00,71.5,70.6,29.89,SSW,208,0.0,0.0,97,0.00,,CLR,0.00,VWS V13.01,2013-07-08 05:43:00,
2013-07-08 01:49:00,71.4,70.5,29.90,SSW,208,0.0,0.0,97,0.00,,CLR,0.00,VWS V13.01,2013-07-08 05:49:00,
2013-07-08 01:54:00,71.4,70.8,29.89,SSW,208,0.0,0.0,98,0.00,,CLR,0.00,VWS V13.01,2013-07-08 05:54:00,
2013-07-08 01:59:00,71.4,70.8,29.89,SSW,208,0.0,0.0,98,0.00,,CLR,0.00,VWS V13.01,2013-07-08 05:59:00,
2013-07-08 02:04:00,71.5,70.9,29.89,SSW,208,0.0,0.0,98,0.00,,CLR,0.00,VWS V13.01,2013-07-08 06:04:00,
2013-07-08 02:09:00,71.6,71.0,29.89,SSW,208,0.0,0.0,98,0.00,,CLR,0.00,VWS V13.01,2013-07-08 06:09:00,
2013-07-08 02:14:00,71.6,71.0,29.89,SSW,208,0.0,0.0,98,0.00,,CLR,0.00,VWS V13.01,2013-07-08 06:14:00,
2013-07-08 02:19:00,71.5,70.9,29.89,SSW,208,0.0,0.0,98,0.00,,CLR,0.00,VWS V13.01,2013-07-08 06:19:00,
2013-07-08 02:24:00,71.5,70.9,29.89,SSW,208,0.0,0.0,98,0.00,,CLR,0.00,VWS V13.01,2013-07-08 06:24:00,
2013-07-08 02:29:00,71.6,71.0,29.89,SSW,208,0.0,0.0,98,0.00,,CLR,0.00,VWS V13.01,2013-07-08 06:29:00,
2013-07-08 02:34:00,71.7,71.1,29.89,SSW,208,0.0,0.0,98,0.00,,CLR,0.00,VWS V13.01,2013-07-08 06:34:00,
2013-07-08 02:39:00,71.8,71.5,29.89,SSW,208,0.0,0.0,99,0.00,,CLR,0.00,VWS V13.01,2013-07-08 06:39:00,
2013-07-08 02:44:00,71.9,71.6,29.88,SSW,208,0.0,0.0,99,0.00,,CLR,0.00,VWS V13.01,2013-07-08 06:44:00,
2013-07-08 02:49:00,71.9,71.3,29.88,SSW,208,0.0,0.0,98,0.00,,CLR,0.00,VWS V13.01,2013-07-08 06:49:00,
2013-07-08 02:54:00,71.9,71.3,29.88,SSW,208,0.0,0.0,98,0.00,,CLR,0.00,VWS V13.01,2013-07-08 06:54:00,
2013-07-08 02:59:00,72.0,71.4,29.88,SSW,208,0.0,0.0,98,0.00,,CLR,0.00,VWS V13.01,2013-07-08 06:59:00,
2013-07-08 03:04:00,72.1,71.8,29.87,SSW,208,0.0,0.0,99,0.00,,CLR,0.00,VWS V13.01,2013-07-08 07:04:00,
2013-07-08 03:09:00,72.3,72.0,29.88,SSW,208,0.0,0.0,99,0.00,,CLR,0.00,VWS V13.01,2013-07-08 07:09:00,
2013-07-08 03:14:00,72.5,72.2,29.88,SSW,208,0.0,0.0,99,0.00,,CLR,0.00,VWS V13.01,2013-07-08 07:14:00,
2013-07-08 03:19:00,72.6,72.3,29.88,SSW,208,0.0,0.0,99,0.00,,CLR,0.00,VWS V13.01,2013-07-08 07:19:00,
2013-07-08 03:24:00,72.7,72.4,29.88,SSW,208,0.0,0.0,99,0.00,,CLR,0.00,VWS V13.01,2013-07-08 07:24:00,
2013-07-08 03:29:00,72.7,72.4,29.88,SSW,208,0.0,0.0,99,0.00,,CLR,0.00,VWS V13.01,2013-07-08 07:29:00,
2013-07-08 03:34:00,72.8,72.5,29.88,SSW,208,0.0,0.0,99,0.00,,CLR,0.00,VWS V13.01,2013-07-08 07:34:00,
2013-07-08 03:40:00,72.8,72.5,29.88,SSW,208,0.0,0.0,99,0.00,,CLR,0.00,VWS V13.01,2013-07-08 07:40:00,
2013-07-08 03:45:00,72.9,72.6,29.87,SSW,208,0.0,0.0,99,0.00,,CLR,0.00,VWS V13.01,2013-07-08 07:45:00,
2013-07-08 03:50:00,72.9,72.3,29.87,SSW,208,0.0,0.0,98,0.00,,FEW080,0.00,VWS V13.01,2013-07-08 07:50:00,
2013-07-08 03:55:00,72.8,72.2,29.87,SSW,208,0.0,0.0,98,0.00,,FEW080,0.00,VWS V13.01,2013-07-08 07:55:00,
2013-07-08 04:00:00,72.7,72.1,29.87,SSW,208,0.0,0.0,98,0.00,,FEW080,0.00,VWS V13.01,2013-07-08 08:00:00,
2013-07-08 04:05:00,72.5,71.9,29.87,SSW,208,0.0,0.0,98,0.00,,FEW080,0.00,VWS V13.01,2013-07-08 08:05:00,
2013-07-08 04:10:00,72.4,71.8,29.87,SSW,208,0.0,0.0,98,0.00,,FEW080,0.00,VWS V13.01,2013-07-08 08:10:00,
2013-07-08 04:15:00,72.3,71.7,29.87,SSW,208,0.0,0.0,98,0.00,,FEW080,0.00,VWS V13.01,2013-07-08 08:15:00,
2013-07-08 04:20:00,72.3,71.7,29.88,SSW,208,0.0,0.0,98,0.00,,FEW080,0.00,VWS V13.01,2013-07-08 08:20:00,
2013-07-08 04:25:00,72.2,71.6,29.88,SSW,208,0.0,0.0,98,0.00,,FEW080,0.00,VWS V13.01,2013-07-08 08:25:00,
2013-07-08 04:30:00,72.2,71.6,29.88,SSW,208,0.0,0.0,98,0.00,,FEW080,0.00,VWS V13.01,2013-07-08 08:30:00,
2013-07-08 04:35:00,72.1,71.5,29.87,SSW,208,0.0,0.0,98,0.00,,FEW080,0.00,VWS V13.01,2013-07-08 08:35:00,
2013-07-08 04:40:00,72.1,71.5,29.88,SSW,208,0.0,0.0,98,0.00,,FEW080,0.00,VWS V13.01,2013-07-08 08:40:00,
2013-07-08 04:45:00,72.1,71.5,29.87,SSW,208,0.0,0.0,98,0.00,,BKN095,0.00,VWS V13.01,2013-07-08 08:45:00,
2013-07-08 04:50:00,72.1,71.5,29.87,SSW,208,0.0,0.0,98,0.00,,BKN095,0.00,VWS V13.01,2013-07-08 08:50:00,
2013-07-08 04:55:00,72.1,71.5,29.88,SSW,208,0.0,0.0,98,0.00,,BKN095,0.00,VWS V13.01,2013-07-08 08:55:00,
2013-07-08 05:00:00,72.1,71.5,29.88,SSW,208,0.0,0.0,98,0.00,,BKN095,0.00,VWS V13.01,2013-07-08 09:00:00,
2013-07-08 05:05:00,72.1,71.5,29.88,SSW,208,0.0,0.0,98,0.00,,BKN095,0.00,VWS V13.01,2013-07-08 09:05:00,
2013-07-08 05:10:00,72.3,72.0,29.88,SSW,209,0.0,1.0,99,0.00,,BKN095,0.01,VWS V13.01,2013-07-08 09:10:00,
2013-07-08 05:15:00,72.4,72.1,29.88,SSW,209,0.0,1.0,99,0.01,,BKN095,0.01,VWS V13.01,2013-07-08 09:15:00,
2013-07-08 05:20:00,72.4,72.1,29.88,SSW,209,0.0,1.0,99,0.01,,BKN095,0.01,VWS V13.01,2013-07-08 09:20:00,
2013-07-08 05:26:00,72.4,72.1,29.88,SSW,209,0.0,1.0,99,0.01,,BKN095,0.01,VWS V13.01,2013-07-08 09:26:00,
2013-07-08 05:31:00,72.4,72.1,29.88,SSW,209,0.0,1.0,99,0.01,,BKN095,0.01,VWS V13.01,2013-07-08 09:31:00,
2013-07-08 05:36:00,72.4,72.1,29.89,SSW,209,0.0,0.0,99,0.01,,BKN095,0.01,VWS V13.01,2013-07-08 09:36:00,
2013-07-08 05:41:00,72.4,72.1,29.88,SSW,209,0.0,0.0,99,0.01,,BKN095,0.01,VWS V13.01,2013-07-08 09:41:00,
2013-07-08 05:46:00,72.4,72.1,29.88,SSW,209,0.0,0.0,99,0.01,,CLR,0.01,VWS V13.01,2013-07-08 09:46:00,
2013-07-08 05:51:00,72.4,71.8,29.88,SSW,209,0.0,0.0,98,0.01,,CLR,0.01,VWS V13.01,2013-07-08 09:51:00,
2013-07-08 05:56:00,72.3,71.7,29.89,SSW,209,0.0,0.0,98,0.01,,CLR,0.01,VWS V13.01,2013-07-08 09:56:00,
2013-07-08 06:01:00,72.3,71.7,29.88,SSW,209,0.0,0.0,98,0.01,,CLR,0.01,VWS V13.01,2013-07-08 10:01:00,
2013-07-08 06:06:00,72.3,71.7,29.89,SSW,209,0.0,0.0,98,0.01,,CLR,0.01,VWS V13.01,2013-07-08 10:06:00,
2013-07-08 06:11:00,72.4,72.1,29.89,SSW,209,0.0,0.0,99,0.01,,CLR,0.01,VWS V13.01,2013-07-08 10:11:00,
2013-07-08 06:16:00,72.4,72.1,29.89,SSW,209,0.0,0.0,99,0.01,,CLR,0.01,VWS V13.01,2013-07-08 10:16:00,
2013-07-08 06:21:00,72.4,72.1,29.89,SSW,209,0.0,0.0,99,0.01,,CLR,0.01,VWS V13.01,2013-07-08 10:21:00,
2013-07-08 06:26:00,72.5,72.2,29.90,SSW,209,0.0,0.0,99,0.01,,CLR,0.01,VWS V13.01,2013-07-08 10:26:00,
2013-07-08 06:31:00,72.5,72.2,29.90,SSW,209,0.0,0.0,99,0.01,,CLR,0.01,VWS V13.01,2013-07-08 10:31:00,
2013-07-08 06:36:00,72.6,72.3,29.89,SSW,209,0.0,0.0,99,0.00,,CLR,0.01,VWS V13.01,2013-07-08 10:36:00,
2013-07-08 06:41:00,72.7,72.4,29.89,SSW,209,0.0,0.0,99,0.00,,CLR,0.01,VWS V13.01,2013-07-08 10:41:00,
2013-07-08 06:46:00,72.9,72.6,29.90,SSW,209,0.0,0.0,99,0.00,,CLR,0.01,VWS V13.01,2013-07-08 10:46:00,
2013-07-08 06:51:00,73.0,72.7,29.90,SSW,209,0.0,0.0,99,0.00,,CLR,0.01,VWS V13.01,2013-07-08 10:51:00,
2013-07-08 06:56:00,73.2,72.9,29.89,SSW,209,0.0,2.0,99,0.00,,CLR,0.01,VWS V13.01,2013-07-08 10:56:00,
2013-07-08 07:01:00,73.3,73.0,29.89,SSW,209,0.0,0.0,99,0.00,,CLR,0.01,VWS V13.01,2013-07-08 11:01:00,
2013-07-08 07:06:00,73.4,73.1,29.90,SSW,209,0.0,1.0,99,0.00,,CLR,0.01,VWS V13.01,2013-07-08 11:06:00,
2013-07-08 07:11:00,73.6,73.3,29.89,SSW,209,0.0,1.0,99,0.00,,CLR,0.01,VWS V13.01,2013-07-08 11:11:00,
2013-07-08 07:17:00,73.8,73.5,29.89,SSW,209,0.0,1.0,99,0.00,,CLR,0.01,VWS V13.01,2013-07-08 11:17:00,
2013-07-08 07:22:00,73.9,73.6,29.89,SSW,209,0.0,1.0,99,0.00,,CLR,0.01,VWS V13.01,2013-07-08 11:22:00,
2013-07-08 07:27:00,73.9,73.6,29.89,SSW,209,0.0,1.0,99,0.00,,CLR,0.01,VWS V13.01,2013-07-08 11:27:00,
2013-07-08 07:32:00,74.1,73.5,29.90,SSW,209,0.0,0.0,98,0.00,,CLR,0.01,VWS V13.01,2013-07-08 11:32:00,
2013-07-08 07:37:00,74.2,73.6,29.90,SSW,209,0.0,0.0,98,0.00,,CLR,0.01,VWS V13.01,2013-07-08 11:37:00,
2013-07-08 07:42:00,74.3,73.7,29.90,SSW,209,0.0,1.0,98,0.00,,CLR,0.01,VWS V13.01,2013-07-08 11:42:00,
2013-07-08 07:47:00,74.5,73.9,29.90,SSW,209,0.0,1.0,98,0.00,,CLR,0.01,VWS V13.01,2013-07-08 11:47:00,
2013-07-08 07:52:00,74.7,74.1,29.90,SSW,209,1.0,1.0,98,0.00,,CLR,0.01,VWS V13.01,2013-07-08 11:52:00,
2013-07-08 07:57:00,74.9,74.3,29.91,SSW,209,0.0,1.0,98,0.00,,CLR,0.01,VWS V13.01,2013-07-08 11:57:00,
2013-07-08 08:02:00,75.3,74.7,29.91,North,350,0.0,3.0,98,0.00,,CLR,0.01,VWS V13.01,2013-07-08 12:02:00,
2013-07-08 08:07:00,75.6,74.7,29.91,North,350,0.0,3.0,97,0.00,,CLR,0.01,VWS V13.01,2013-07-08 12:07:00,
2013-07-08 08:12:00,75.9,75.0,29.91,SW,221,0.0,3.0,97,0.00,,CLR,0.01,VWS V13.01,2013-07-08 12:12:00,
2013-07-08 08:17:00,76.3,75.1,29.91,North,350,0.0,3.0,96,0.00,,CLR,0.01,VWS V13.01,2013-07-08 12:17:00,
2013-07-08 08:22:00,76.6,74.8,29.91,NNW,336,0.0,6.0,94,0.00,,CLR,0.01,VWS V13.01,2013-07-08 12:22:00,
2013-07-08 08:27:00,76.7,74.8,29.91,NNW,336,0.0,6.0,94,0.00,,CLR,0.01,VWS V13.01,2013-07-08 12:27:00,
2013-07-08 08:33:00,76.9,74.7,29.91,North,9,0.0,2.0,93,0.00,,CLR,0.01,VWS V13.01,2013-07-08 12:33:00,
2013-07-08 08:38:00,77.1,74.9,29.91,North,355,0.0,3.0,93,0.00,,CLR,0.01,VWS V13.01,2013-07-08 12:38:00,
2013-07-08 08:43:00,77.4,74.9,29.91,SSW,203,5.0,5.0,92,0.00,,CLR,0.01,VWS V13.01,2013-07-08 12:43:00,
2013-07-08 08:48:00,77.7,74.9,29.91,North,11,0.0,5.0,91,0.00,,CLR,0.01,VWS V13.01,2013-07-08 12:48:00,
2013-07-08 08:53:00,77.9,75.1,29.91,West,260,0.0,5.0,91,0.00,,CLR,0.01,VWS V13.01,2013-07-08 12:53:00,
2013-07-08 08:58:00,78.1,75.6,29.91,WNW,300,0.0,5.0,92,0.00,,CLR,0.01,VWS V13.01,2013-07-08 12:58:00,
2013-07-08 09:03:00,78.7,75.5,29.90,North,9,0.0,5.0,90,0.00,,BKN018,0.01,VWS V13.01,2013-07-08 13:03:00,
2013-07-08 09:08:00,79.7,76.5,29.91,North,9,0.0,5.0,90,0.00,,BKN018,0.01,VWS V13.01,2013-07-08 13:08:00,
2013-07-08 09:13:00,80.6,76.7,29.90,NNW,346,3.0,5.0,88,0.00,,BKN018,0.01,VWS V13.01,2013-07-08 13:13:00,
2013-07-08 09:18:00,81.2,77.0,29.91,NW,306,5.0,5.0,87,0.00,,BKN018,0.01,VWS V13.01,2013-07-08 13:18:00,
2013-07-08 09:23:00,81.8,76.1,29.91,NW,311,0.0,5.0,83,0.00,,BKN018,0.01,VWS V13.01,2013-07-08 13:23:00,
2013-07-08 09:28:00,82.5,76.1,29.91,NW,311,0.0,5.0,81,0.00,,BKN018,0.01,VWS V13.01,2013-07-08 13:28:00,
2013-07-08 09:33:00,82.9,76.5,29.91,NW,311,0.0,0.0,81,0.00,,BKN018,0.01,VWS V13.01,2013-07-08 13:33:00,
2013-07-08 09:38:00,83.0,76.2,29.91,NW,312,0.0,4.0,80,0.00,,BKN018,0.01,VWS V13.01,2013-07-08 13:38:00,
2013-07-08 09:43:00,82.8,76.0,29.91,WNW,301,0.0,4.0,80,0.00,,BKN018,0.01,VWS V13.01,2013-07-08 13:43:00,
2013-07-08 09:48:00,82.6,76.6,29.91,NNW,334,0.0,4.0,82,0.00,,BKN018,0.01,VWS V13.01,2013-07-08 13:48:00,
2013-07-08 09:53:00,82.5,76.1,29.91,NNW,334,0.0,4.0,81,0.00,,BKN018,0.01,VWS V13.01,2013-07-08 13:53:00,
2013-07-08 09:58:00,82.5,76.8,29.91,NNW,334,0.0,4.0,83,0.00,,BKN018,0.01,VWS V13.01,2013-07-08 13:58:00,
2013-07-08 09:59:00,82.5,76.8,29.91,NNW,334,0.0,4.0,83,0.00,,BKN018,0.01,VWS V13.01,2013-07-08 13:59:00,
2013-07-08 10:04:00,82.5,77.2,29.91,NNW,333,0.0,1.0,84,0.00,,BKN018,0.01,VWS V13.01,2013-07-08 14:04:00,
2013-07-08 10:09:00,82.6,76.9,29.92,NNW,333,0.0,2.0,83,0.00,,BKN018,0.01,VWS V13.01,2013-07-08 14:09:00,
2013-07-08 10:14:00,82.7,76.7,29.92,NNW,333,0.0,2.0,82,0.00,,BKN018,0.01,VWS V13.01,2013-07-08 14:14:00,
2013-07-08 10:19:00,83.2,76.8,29.92,NNW,333,0.0,3.0,81,0.00,,BKN018,0.01,VWS V13.01,2013-07-08 14:19:00,
2013-07-08 10:24:00,83.8,75.8,29.91,NW,317,0.0,5.0,77,0.00,,BKN018,0.01,VWS V13.01,2013-07-08 14:24:00,
2013-07-08 10:29:00,84.1,76.9,29.91,NW,317,0.0,5.0,79,0.00,,BKN018,0.01,VWS V13.01,2013-07-08 14:29:00,
2013-07-08 10:34:00,84.3,77.1,29.92,NW,317,0.0,2.0,79,0.00,,BKN018,0.01,VWS V13.01,2013-07-08 14:34:00,
2013-07-08 10:39:00,84.3,77.1,29.91,NW,317,0.0,2.0,79,0.00,,BKN018,0.01,VWS V13.01,2013-07-08 14:39:00,
2013-07-08 10:44:00,84.4,76.4,29.91,NW,317,0.0,2.0,77,0.00,,BKN018,0.01,VWS V13.01,2013-07-08 14:44:00,
2013-07-08 10:49:00,84.8,77.9,29.91,NNW,348,0.0,5.0,80,0.00,,OVC034,0.01,VWS V13.01,2013-07-08 14:49:00,
2013-07-08 10:54:00,85.5,77.5,29.91,SSW,209,0.0,5.0,77,0.00,,OVC034,0.01,VWS V13.01,2013-07-08 14:54:00,
2013-07-08 10:59:00,86.0,77.6,29.91,WNW,298,0.0,5.0,76,0.00,,OVC034,0.01,VWS V13.01,2013-07-08 14:59:00,
2013-07-08 11:04:00,86.4,77.1,29.91,WNW,298,0.0,1.0,74,0.00,,OVC034,0.01,VWS V13.01,2013-07-08 15:04:00,
2013-07-08 11:09:00,86.4,75.5,29.91,WNW,298,0.0,1.0,70,0.00,,OVC034,0.01,VWS V13.01,2013-07-08 15:09:00,
2013-07-08 11:14:00,86.6,74.8,29.91,WNW,298,0.0,1.0,68,0.00,,OVC034,0.01,VWS V13.01,2013-07-08 15:14:00,
2013-07-08 11:20:00,87.0,74.7,29.92,WNW,298,0.0,1.0,67,0.00,,OVC034,0.01,VWS V13.01,2013-07-08 15:20:00,
2013-07-08 11:25:00,87.3,75.0,29.91,NNW,346,0.0,6.0,67,0.00,,OVC034,0.01,VWS V13.01,2013-07-08 15:25:00,
2013-07-08 11:30:00,87.0,76.5,29.92,NNW,346,0.0,6.0,71,0.00,,OVC034,0.01,VWS V13.01,2013-07-08 15:30:00,
2013-07-08 11:35:00,86.4,75.9,29.92,NNW,346,0.0,1.0,71,0.00,,OVC034,0.01,VWS V13.01,2013-07-08 15:35:00,
2013-07-08 11:40:00,85.7,76.5,29.92,NNW,346,0.0,1.0,74,0.00,,OVC034,0.01,VWS V13.01,2013-07-08 15:40:00,
2013-07-08 11:45:00,85.1,77.9,29.92,NNW,346,0.0,1.0,79,0.00,,BKN060,0.01,VWS V13.01,2013-07-08 15:45:00,
2013-07-08 11:50:00,85.2,77.6,29.92,NNW,339,0.0,1.0,78,0.00,,BKN060,0.01,VWS V13.01,2013-07-08 15:50:00,
2013-07-08 11:55:00,85.2,77.2,29.92,NNW,339,0.0,1.0,77,0.00,,BKN060,0.01,VWS V13.01,2013-07-08 15:55:00,
2013-07-08 12:00:00,84.9,76.9,29.92,NNW,339,0.0,1.0,77,0.00,,BKN060,0.01,VWS V13.01,2013-07-08 16:00:00,
2013-07-08 12:05:00,84.5,76.9,29.92,NNW,339,0.0,1.0,78,0.00,,BKN060,0.01,VWS V13.01,2013-07-08 16:05:00,
2013-07-08 12:10:00,85.0,77.0,29.93,NNW,339,0.0,1.0,77,0.00,,BKN060,0.01,VWS V13.01,2013-07-08 16:10:00,
2013-07-08 12:15:00,85.8,76.2,29.92,NNW,339,0.0,1.0,73,0.00,,BKN060,0.01,VWS V13.01,2013-07-08 16:15:00,
2013-07-08 12:20:00,85.8,76.6,29.92,NNW,339,0.0,1.0,74,0.00,,BKN060,0.01,VWS V13.01,2013-07-08 16:20:00,
2013-07-08 12:25:00,85.3,77.3,29.92,NNW,339,0.0,1.0,77,0.00,,BKN060,0.01,VWS V13.01,2013-07-08 16:25:00,
2013-07-08 12:30:00,84.9,77.3,29.92,NNW,339,0.0,1.0,78,0.00,,BKN060,0.01,VWS V13.01,2013-07-08 16:30:00,
2013-07-08 12:35:00,85.0,77.4,29.92,NNW,339,0.0,0.0,78,0.00,,BKN060,0.01,VWS V13.01,2013-07-08 16:35:00,
2013-07-08 12:40:00,85.1,77.5,29.92,NNW,328,0.0,1.0,78,0.00,,BKN060,0.01,VWS V13.01,2013-07-08 16:40:00,
2013-07-08 12:46:00,85.1,77.1,29.92,NW,317,0.0,2.0,77,0.00,,BKN050,0.01,VWS V13.01,2013-07-08 16:46:00,
2013-07-08 12:51:00,84.5,76.1,29.92,NW,318,0.0,2.0,76,0.00,,BKN050,0.01,VWS V13.01,2013-07-08 16:51:00,
2013-07-08 12:56:00,83.6,75.6,29.92,WNW,301,0.0,2.0,77,0.00,,BKN050,0.01,VWS V13.01,2013-07-08 16:56:00,
2013-07-08 13:01:00,82.9,74.2,29.93,SSE,150,0.0,2.0,75,0.00,,BKN050,0.01,VWS V13.01,2013-07-08 17:01:00,
2013-07-08 13:06:00,82.6,75.4,29.93,SW,219,0.0,1.0,79,0.00,,BKN050,0.01,VWS V13.01,2013-07-08 17:06:00,
2013-07-08 13:12:00,82.5,75.3,29.93,SW,220,0.0,1.0,79,0.00,,BKN050,0.01,VWS V13.01,2013-07-08 17:12:00,
2013-07-08 13:17:00,82.1,74.9,29.92,SW,220,0.0,1.0,79,0.00,,BKN050,0.01,VWS V13.01,2013-07-08 17:17:00,
2013-07-08 13:22:00,81.9,75.1,29.92,SW,220,0.0,1.0,80,0.00,,BKN050,0.01,VWS V13.01,2013-07-08 17:22:00,
2013-07-08 13:28:00,81.3,74.5,29.92,ENE,63,0.0,2.0,80,0.00,,BKN050,0.01,VWS V13.01,2013-07-08 17:28:00,
2013-07-08 13:33:00,80.8,74.4,29.92,NE,36,0.0,1.0,81,0.00,,BKN050,0.01,VWS V13.01,2013-07-08 17:33:00,
2013-07-08 13:38:00,80.3,74.3,29.93,WSW,253,0.0,3.0,82,0.00,,BKN050,0.01,VWS V13.01,2013-07-08 17:38:00,
2013-07-08 13:43:00,80.1,74.5,29.94,WSW,253,0.0,3.0,83,0.00,,BKN050,0.01,VWS V13.01,2013-07-08 17:43:00,
2013-07-08 13:48:00,80.0,74.0,29.94,West,261,0.0,3.0,82,0.00,,BKN031,0.01,VWS V13.01,2013-07-08 17:48:00,
2013-07-08 13:53:00,80.7,75.8,29.93,West,261,0.0,3.0,85,0.00,,BKN031,0.01,VWS V13.01,2013-07-08 17:53:00,
2013-07-08 13:58:00,81.4,75.4,29.93,NE,34,0.0,3.0,82,0.00,,BKN031,0.01,VWS V13.01,2013-07-08 17:58:00,
2013-07-08 14:03:00,81.8,76.1,29.93,NW,304,1.0,1.0,83,0.00,,BKN060,0.01,VWS V13.01,2013-07-08 18:03:00,
2013-07-08 14:09:00,82.3,76.3,29.93,WNW,302,1.0,5.0,82,0.00,,BKN060,0.01,VWS V13.01,2013-07-08 18:09:00,
2013-07-08 14:14:00,83.5,77.1,29.93,NNE,15,0.0,5.0,81,0.00,,BKN060,0.01,VWS V13.01,2013-07-08 18:14:00,
2013-07-08 14:19:00,84.3,75.1,29.93,NW,313,0.0,5.0,74,0.00,,BKN060,0.01,VWS V13.01,2013-07-08 18:19:00,
2013-07-08 14:24:00,84.5,77.3,29.93,WSW,248,0.0,5.0,79,0.00,,BKN060,0.01,VWS V13.01,2013-07-08 18:24:00,
2013-07-08 14:29:00,84.7,76.3,29.93,WSW,248,0.0,5.0,76,0.00,,BKN060,0.01,VWS V13.01,2013-07-08 18:29:00,
2013-07-08 14:35:00,85.0,77.4,29.93,NW,304,1.0,1.0,78,0.00,,BKN060,0.01,VWS V13.01,2013-07-08 18:35:00,
2013-07-08 14:41:00,85.6,76.4,29.93,NW,307,0.0,2.0,74,0.00,,BKN060,0.01,VWS V13.01,2013-07-08 18:41:00,
2013-07-08 14:46:00,85.7,76.5,29.93,ESE,111,0.0,2.0,74,0.00,,BKN055,0.01,VWS V13.01,2013-07-08 18:46:00,
2013-07-08 14:52:00,85.6,76.4,29.93,SW,235,0.0,2.0,74,0.00,,BKN055,0.01,VWS V13.01,2013-07-08 18:52:00,
2013-07-08 14:57:00,85.4,76.2,29.93,SW,219,1.0,2.0,74,0.00,,BKN055,0.01,VWS V13.01,2013-07-08 18:57:00,
2013-07-08 15:02:00,85.2,75.2,29.93,SSE,163,0.0,1.0,72,0.00,,BKN055,0.01,VWS V13.01,2013-07-08 19:02:00,
2013-07-08 15:07:00,85.3,76.9,29.93,SW,231,0.0,2.0,76,0.00,,BKN055,0.01,VWS V13.01,2013-07-08 19:07:00,
2013-07-08 15:12:00,85.2,76.8,29.93,South,190,0.0,2.0,76,0.00,,BKN055,0.01,VWS V13.01,2013-07-08 19:12:00,
2013-07-08 15:17:00,85.0,75.8,29.92,SW,235,0.0,2.0,74,0.00,,BKN055,0.01,VWS V13.01,2013-07-08 19:17:00,
2013-07-08 15:23:00,85.2,75.2,29.93,West,263,0.0,3.0,72,0.00,,BKN055,0.01,VWS V13.01,2013-07-08 19:23:00,
2013-07-08 15:28:00,85.6,76.0,29.92,WSW,248,1.0,3.0,73,0.00,,BKN055,0.01,VWS V13.01,2013-07-08 19:28:00,
2013-07-08 15:33:00,85.7,76.9,29.92,WSW,248,0.0,0.0,75,0.00,,BKN055,0.01,VWS V13.01,2013-07-08 19:33:00,
2013-07-08 15:38:00,85.9,76.2,29.92,WSW,237,0.0,2.0,73,0.00,,BKN055,0.01,VWS V13.01,2013-07-08 19:38:00,
2013-07-08 15:43:00,86.0,75.9,29.92,West,265,0.0,4.0,72,0.00,,BKN055,0.01,VWS V13.01,2013-07-08 19:43:00,
2013-07-08 15:48:00,86.2,76.1,29.92,West,263,0.0,4.0,72,0.00,,BKN250,0.01,VWS V13.01,2013-07-08 19:48:00,
2013-07-08 15:53:00,86.1,76.8,29.92,SSW,199,2.0,4.0,74,0.00,,BKN250,0.01,VWS V13.01,2013-07-08 19:53:00,
2013-07-08 15:59:00,86.1,75.6,29.92,NW,308,0.0,4.0,71,0.00,,BKN250,0.01,VWS V13.01,2013-07-08 19:59:00,
2013-07-08 16:04:00,86.4,75.9,29.92,NW,308,0.0,1.0,71,0.00,,BKN250,0.01,VWS V13.01,2013-07-08 20:04:00,
2013-07-08 16:10:00,86.3,75.8,29.91,West,267,0.0,2.0,71,0.00,,BKN250,0.01,VWS V13.01,2013-07-08 20:10:00,
2013-07-08 16:16:00,86.5,76.4,29.92,West,261,1.0,4.0,72,0.00,,BKN250,0.01,VWS V13.01,2013-07-08 20:16:00,
2013-07-08 16:21:00,86.8,75.0,29.92,West,264,0.0,4.0,68,0.00,,BKN250,0.01,VWS V13.01,2013-07-08 20:21:00,
2013-07-08 16:27:00,87.0,76.0,29.92,West,264,0.0,4.0,70,0.00,,BKN250,0.01,VWS V13.01,2013-07-08 20:27:00,
2013-07-08 16:32:00,86.9,75.9,29.91,West,264,0.0,1.0,70,0.00,,BKN250,0.01,VWS V13.01,2013-07-08 20:32:00,
2013-07-08 16:38:00,86.6,75.2,29.92,WSW,250,0.0,2.0,69,0.00,,BKN250,0.01,VWS V13.01,2013-07-08 20:38:00,
2013-07-08 16:43:00,86.1,74.3,29.92,WSW,257,1.0,2.0,68,0.00,,BKN250,0.01,VWS V13.01,2013-07-08 20:43:00,
2013-07-08 16:49:00,85.2,75.6,29.92,WNW,282,0.0,2.0,73,0.00,,CLR,0.01,VWS V13.01,2013-07-08 20:49:00,
2013-07-08 16:54:00,84.7,74.7,29.92,WNW,282,0.0,2.0,72,0.00,,CLR,0.01,VWS V13.01,2013-07-08 20:54:00,
2013-07-08 16:59:00,84.3,75.1,29.92,WNW,282,1.0,2.0,74,0.00,,CLR,0.01,VWS V13.01,2013-07-08 20:59:00,
2013-07-08 17:04:00,83.8,75.0,29.92,ESE,108,0.0,1.0,75,0.00,,CLR,0.01,VWS V13.01,2013-07-08 21:04:00,
2013-07-08 17:09:00,83.4,74.2,29.92,South,171,0.0,1.0,74,0.00,,CLR,0.01,VWS V13.01,2013-07-08 21:09:00,
2013-07-08 17:15:00,83.1,74.4,29.92,NE,42,0.0,4.0,75,0.00,,CLR,0.01,VWS V13.01,2013-07-08 21:15:00,
2013-07-08 17:20:00,82.5,74.2,29.92,South,172,0.0,4.0,76,0.00,,CLR,0.01,VWS V13.01,2013-07-08 21:20:00,
2013-07-08 17:27:00,82.1,74.2,29.92,ENE,78,0.0,4.0,77,0.00,,CLR,0.01,VWS V13.01,2013-07-08 21:27:00,
2013-07-08 17:32:00,81.8,74.3,29.92,WSW,242,0.0,0.0,78,0.00,,CLR,0.01,VWS V13.01,2013-07-08 21:32:00,
2013-07-08 17:37:00,81.5,74.0,29.92,WSW,242,0.0,1.0,78,0.00,,CLR,0.01,VWS V13.01,2013-07-08 21:37:00,
2013-07-08 17:42:00,81.2,72.1,29.92,ESE,105,0.0,2.0,74,0.00,,CLR,0.01,VWS V13.01,2013-07-08 21:42:00,
2013-07-08 17:47:00,81.0,72.7,29.92,ESE,105,0.0,2.0,76,0.00,,CLR,0.01,VWS V13.01,2013-07-08 21:47:00,
2013-07-08 17:52:00,80.5,72.6,29.92,South,188,0.0,3.0,77,0.00,,CLR,0.01,VWS V13.01,2013-07-08 21:52:00,
2013-07-08 17:57:00,80.0,71.8,29.93,NW,304,0.0,3.0,76,0.00,,CLR,0.01,VWS V13.01,2013-07-08 21:57:00,
2013-07-08 18:03:00,79.4,70.8,29.93,WNW,300,0.0,6.0,75,0.00,,CLR,0.01,VWS V13.01,2013-07-08 22:03:00,
2013-07-08 18:08:00,78.8,71.4,29.94,WNW,299,0.0,6.0,78,0.00,,CLR,0.01,VWS V13.01,2013-07-08 22:08:00,
2013-07-08 18:14:00,78.2,70.4,29.94,WNW,299,0.0,6.0,77,0.00,,CLR,0.01,VWS V13.01,2013-07-08 22:14:00,
2013-07-08 18:19:00,77.7,70.7,29.94,WNW,299,0.0,6.0,79,0.00,,CLR,0.01,VWS V13.01,2013-07-08 22:19:00,
2013-07-08 18:24:00,77.3,70.3,29.94,NNE,33,0.0,7.0,79,0.00,,CLR,0.01,VWS V13.01,2013-07-08 22:24:00,
2013-07-08 18:30:00,76.8,69.1,29.95,NNE,30,0.0,7.0,77,0.00,,CLR,0.01,VWS V13.01,2013-07-08 22:30:00,
2013-07-08 18:36:00,76.4,68.7,29.95,NNE,30,0.0,2.0,77,0.00,,CLR,0.01,VWS V13.01,2013-07-08 22:36:00,
2013-07-08 18:41:00,76.0,68.3,29.96,NNE,30,0.0,2.0,77,0.00,,CLR,0.01,VWS V13.01,2013-07-08 22:41:00,
2013-07-08 18:46:00,75.6,69.4,29.96,NNE,30,0.0,2.0,81,0.00,,OVC046,0.01,VWS V13.01,2013-07-08 22:46:00,
2013-07-08 18:51:00,75.1,69.9,29.96,NNE,30,0.0,2.0,84,0.02,,OVC046,0.03,VWS V13.01,2013-07-08 22:51:00,
2013-07-08 18:56:00,74.2,69.4,29.95,NNE,30,0.0,2.0,85,0.03,,OVC046,0.04,VWS V13.01,2013-07-08 22:56:00,
2013-07-08 19:01:00,73.5,69.1,29.96,NNE,30,0.0,2.0,86,0.03,,OVC046,0.04,VWS V13.01,2013-07-08 23:01:00,
2013-07-08 19:06:00,72.8,68.7,29.96,NNE,30,0.0,0.0,87,0.03,,OVC046,0.04,VWS V13.01,2013-07-08 23:06:00,
2013-07-08 19:12:00,72.2,68.8,29.97,NNE,30,0.0,0.0,89,0.03,,OVC046,0.04,VWS V13.01,2013-07-08 23:12:00,
2013-07-08 19:18:00,71.5,68.1,29.97,NNE,30,0.0,0.0,89,0.03,,OVC046,0.04,VWS V13.01,2013-07-08 23:18:00,
2013-07-08 19:23:00,71.1,68.0,29.97,NNE,30,0.0,0.0,90,0.03,,OVC046,0.04,VWS V13.01,2013-07-08 23:23:00,
2013-07-08 19:30:00,70.6,67.8,29.97,NNE,30,0.0,0.0,91,0.03,,OVC046,0.04,VWS V13.01,2013-07-08 23:30:00,
2013-07-08 19:36:00,70.1,67.4,29.97,NNE,30,0.0,0.0,91,0.03,,OVC046,0.04,VWS V13.01,2013-07-08 23:36:00,
2013-07-08 19:42:00,69.8,67.4,29.97,NNE,30,0.0,0.0,92,0.03,,OVC046,0.04,VWS V13.01,2013-07-08 23:42:00,
2013-07-08 19:47:00,69.6,67.5,29.98,NNE,30,0.0,0.0,93,0.03,,-RA,0.04,VWS V13.01,2013-07-08 23:47:00,
2013-07-08 19:53:00,69.4,67.3,29.97,NNE,30,0.0,1.0,93,0.03,,-RA,0.04,VWS V13.01,2013-07-08 23:53:00,
2013-07-08 19:58:00,69.2,67.1,29.97,NNE,30,0.0,2.0,93,0.03,,-RA,0.04,VWS V13.01,2013-07-08 23:58:00,
2013-07-08 20:03:00,69.1,67.3,29.97,South,177,0.0,1.0,94,0.00,,BKN075,0.04,VWS V13.01,2013-07-09 00:03:00,
2013-07-08 20:08:00,69.0,67.2,29.97,South,177,0.0,1.0,94,0.00,,BKN075,0.04,VWS V13.01,2013-07-09 00:08:00,
2013-07-08 20:13:00,68.8,67.0,29.98,South,177,0.0,1.0,94,0.00,,BKN075,0.04,VWS V13.01,2013-07-09 00:13:00,
2013-07-08 20:18:00,68.7,66.9,29.98,South,177,0.0,1.0,94,0.00,,BKN075,0.04,VWS V13.01,2013-07-09 00:18:00,
2013-07-08 20:24:00,68.6,66.8,29.98,South,177,0.0,1.0,94,0.00,,BKN075,0.04,VWS V13.01,2013-07-09 00:24:00,
2013-07-08 20:32:00,68.5,66.7,29.98,South,177,0.0,0.0,94,0.00,,BKN100,0.04,VWS V13.01,2013-07-09 00:32:00,
2013-07-08 20:37:00,68.4,66.6,29.98,South,177,0.0,0.0,94,0.00,,BKN100,0.04,VWS V13.01,2013-07-09 00:37:00,
2013-07-08 20:42:00,68.3,66.8,29.99,South,177,0.0,0.0,95,0.00,,BKN100,0.04,VWS V13.01,2013-07-09 00:42:00,
2013-07-08 20:47:00,68.3,66.8,29.99,South,177,0.0,0.0,95,0.00,,BKN100,0.04,VWS V13.01,2013-07-09 00:47:00,
2013-07-08 20:53:00,68.2,66.7,29.99,South,177,0.0,0.0,95,0.00,,BKN100,0.04,VWS V13.01,2013-07-09 00:53:00,
2013-07-08 20:58:00,68.1,66.6,30.00,South,177,0.0,0.0,95,0.00,,BKN100,0.04,VWS V13.01,2013-07-09 00:58:00,
2013-07-08 21:03:00,68.1,66.6,30.00,South,177,0.0,0.0,95,0.00,,BKN100,0.04,VWS V13.01,2013-07-09 01:03:00,
2013-07-08 21:09:00,68.0,66.5,30.00,South,177,0.0,0.0,95,0.00,,BKN100,0.04,VWS V13.01,2013-07-09 01:09:00,
2013-07-08 21:14:00,67.9,66.7,30.00,South,177,0.0,0.0,96,0.00,,BKN100,0.04,VWS V13.01,2013-07-09 01:14:00,
2013-07-08 21:19:00,67.9,66.7,30.01,South,177,0.0,0.0,96,0.00,,BKN100,0.04,VWS V13.01,2013-07-09 01:19:00,
2013-07-08 21:25:00,67.9,66.7,30.01,South,177,0.0,0.0,96,0.00,,BKN100,0.04,VWS V13.01,2013-07-09 01:25:00,
2013-07-08 21:30:00,67.9,66.7,30.01,South,177,0.0,0.0,96,0.00,,BKN100,0.04,VWS V13.01,2013-07-09 01:30:00,
2013-07-08 21:35:00,67.9,66.7,30.01,South,177,0.0,0.0,96,0.00,,BKN100,0.04,VWS V13.01,2013-07-09 01:35:00,
2013-07-08 21:41:00,67.9,66.7,30.01,South,177,0.0,0.0,96,0.00,,BKN100,0.04,VWS V13.01,2013-07-09 01:41:00,
2013-07-08 21:46:00,67.9,66.7,30.01,South,177,0.0,0.0,96,0.00,,BKN100,0.04,VWS V13.01,2013-07-09 01:46:00,
2013-07-08 21:51:00,68.0,66.8,30.01,South,177,0.0,0.0,96,0.00,,BKN100,0.04,VWS V13.01,2013-07-09 01:51:00,
2013-07-08 21:56:00,68.0,66.8,30.01,South,177,0.0,0.0,96,0.00,,BKN100,0.04,VWS V13.01,2013-07-09 01:56:00,
2013-07-08 22:02:00,68.0,66.8,30.01,South,177,0.0,0.0,96,0.00,,BKN110,0.04,VWS V13.01,2013-07-09 02:02:00,
2013-07-08 22:07:00,68.0,66.8,30.01,South,177,0.0,0.0,96,0.00,,BKN110,0.04,VWS V13.01,2013-07-09 02:07:00,
2013-07-08 22:13:00,68.0,66.8,30.02,South,177,0.0,0.0,96,0.00,,BKN110,0.04,VWS V13.01,2013-07-09 02:13:00,
2013-07-08 22:19:00,68.0,66.8,30.01,South,177,0.0,0.0,96,0.00,,BKN110,0.04,VWS V13.01,2013-07-09 02:19:00,
2013-07-08 22:24:00,68.0,66.8,30.02,South,177,0.0,0.0,96,0.00,,BKN110,0.04,VWS V13.01,2013-07-09 02:24:00,
2013-07-08 22:29:00,68.0,66.8,30.02,South,177,0.0,0.0,96,0.00,,BKN110,0.04,VWS V13.01,2013-07-09 02:29:00,
2013-07-08 22:34:00,68.0,66.8,30.02,South,177,0.0,0.0,96,0.00,,BKN110,0.04,VWS V13.01,2013-07-09 02:34:00,
2013-07-08 22:40:00,68.0,66.8,30.02,South,177,0.0,0.0,96,0.00,,BKN110,0.04,VWS V13.01,2013-07-09 02:40:00,
2013-07-08 22:45:00,68.0,66.8,30.02,South,177,0.0,0.0,96,0.00,,,0.04,VWS V13.01,2013-07-09 02:45:00,
2013-07-08 22:50:00,68.0,67.1,30.02,South,177,0.0,0.0,97,0.00,,,0.04,VWS V13.01,2013-07-09 02:50:00,
2013-07-08 22:55:00,67.9,66.7,30.02,South,177,0.0,0.0,96,0.00,,,0.04,VWS V13.01,2013-07-09 02:55:00,
2013-07-08 23:00:00,67.9,66.7,30.02,South,177,0.0,0.0,96,0.00,,,0.04,VWS V13.01,2013-07-09 03:00:00,
2013-07-08 23:05:00,67.9,67.0,30.02,South,177,0.0,0.0,97,0.00,,OVC026,0.04,VWS V13.01,2013-07-09 03:05:00,
2013-07-08 23:11:00,67.8,66.6,30.02,South,178,0.0,1.0,96,0.00,,OVC026,0.04,VWS V13.01,2013-07-09 03:11:00,
2013-07-08 23:16:00,67.7,66.5,30.02,South,178,0.0,1.0,96,0.00,,OVC026,0.04,VWS V13.01,2013-07-09 03:16:00,
2013-07-08 23:22:00,67.5,66.3,30.03,South,178,0.0,1.0,96,0.00,,OVC026,0.04,VWS V13.01,2013-07-09 03:22:00,
2013-07-08 23:27:00,67.4,66.2,30.03,South,178,0.0,1.0,96,0.00,,OVC026,0.04,VWS V13.01,2013-07-09 03:27:00,
2013-07-08 23:33:00,67.4,66.2,30.03,South,178,0.0,0.0,96,0.00,,OVC026,0.04,VWS V13.01,2013-07-09 03:33:00,
2013-07-08 23:38:00,67.4,66.2,30.03,South,178,0.0,0.0,96,0.00,,OVC026,0.04,VWS V13.01,2013-07-09 03:38:00,
2013-07-08 23:43:00,67.3,66.1,30.03,South,178,0.0,0.0,96,0.00,,OVC026,0.04,VWS V13.01,2013-07-09 03:43:00,
2013-07-08 23:49:00,67.2,66.0,30.03,South,178,0.0,0.0,96,0.00,,OVC014,0.04,VWS V13.01,2013-07-09 03:49:00,
2013-07-08 23:54:00,67.1,65.9,30.04,South,178,0.0,0.0,96,0.00,,OVC014,0.04,VWS V13.01,2013-07-09 03:54:00,
2013-07-08 23:59:00,67.1,65.9,30.03,South,178,0.0,0.0,96,0.00,,OVC014,0.04,VWS V13.01,2013-07-09 03:59:00,